Time;durP1;ratioP1;P1;durP2;ratioP2;P2;SDS_P1;SDS_P2;PMS_P1;PMS_P2;Temp;Humidity;BMP_temperature;BMP_pressure;BME280_temperature;BME280_humidity;BME280_pressure;Samples;Min_cycle;Max_cycle;Signal;HPM_P1;HPM_P2
2023/04/07 00:00:03;;;;;;;19.83;8.97;;;10.60;99.90;;;10.96;100.00;101381.28;4996031;28;20046;-73
2023/04/07 00:02:38;;;;;;;17.48;7.53;;;10.50;99.90;;;10.95;100.00;101394.53;4995476;28;20136;-73
2023/04/07 00:05:09;;;;;;;21.83;8.93;;;10.60;99.90;;;10.92;100.00;101386.59;4995730;28;20049;-72
2023/04/07 00:07:38;;;;;;;22.30;8.05;;;10.60;99.90;;;10.78;100.00;101384.75;4995238;28;20484;-72
2023/04/07 00:10:24;;;;;;;18.30;7.95;;;10.50;99.90;;;10.81;100.00;101383.91;4994305;28;20137;-73
2023/04/07 00:12:53;;;;;;;19.63;8.70;;;10.50;99.90;;;10.72;100.00;101387.38;4995745;28;20042;-72
2023/04/07 00:15:22;;;;;;;14.87;7.37;;;10.40;99.90;;;10.69;100.00;101378.56;4995834;28;20113;-72
2023/04/07 00:17:50;;;;;;;16.60;7.10;;;10.30;99.90;;;10.73;100.00;101383.00;4995706;28;20484;-72
2023/04/07 00:20:19;;;;;;;16.05;7.32;;;10.30;99.90;;;10.65;100.00;101382.06;4995060;28;20078;-72
2023/04/07 00:22:47;;;;;;;18.45;7.97;;;10.20;99.90;;;10.56;100.00;101385.59;4995051;28;20050;-72
2023/04/07 00:25:16;;;;;;;16.95;7.93;;;10.20;99.90;;;10.45;100.00;101373.19;4995361;28;20101;-72
2023/04/07 00:27:44;;;;;;;15.50;6.70;;;10.10;99.90;;;10.42;100.00;101379.34;4995009;28;20503;-73
2023/04/07 00:30:15;;;;;;;14.25;7.35;;;10.00;99.90;;;10.23;100.00;101377.50;4994866;28;20046;-73
2023/04/07 00:32:43;;;;;;;12.82;6.55;;;9.80;99.90;;;10.18;100.00;101378.34;4993979;28;20141;-72
2023/04/07 00:35:12;;;;;;;17.73;6.72;;;9.80;99.90;;;10.18;100.00;101378.34;4992838;28;20054;-72
2023/04/07 00:37:41;;;;;;;13.73;6.35;;;9.80;99.90;;;10.23;100.00;101384.53;4995088;28;20042;-72
2023/04/07 00:40:10;;;;;;;21.58;6.90;;;9.80;99.90;;;10.20;100.00;101384.53;4994721;28;20538;-73
2023/04/07 00:42:38;;;;;;;15.95;7.03;;;9.80;99.90;;;10.29;100.00;101382.81;4993712;28;20422;-72
2023/04/07 00:45:09;;;;;;;19.48;6.85;;;9.80;99.90;;;10.46;100.00;101393.47;4994871;28;20042;-73
2023/04/07 00:47:38;;;;;;;15.60;7.00;;;10.00;99.90;;;10.32;100.00;101387.22;4995223;28;20484;-72
2023/04/07 00:50:08;;;;;;;18.10;7.22;;;10.00;99.90;;;10.41;100.00;101387.28;4993462;28;20125;-73
2023/04/07 00:52:37;;;;;;;18.65;7.20;;;10.00;99.90;;;10.52;100.00;101385.56;4993560;28;20472;-72
2023/04/07 00:55:07;;;;;;;14.57;6.43;;;10.10;99.90;;;10.58;100.00;101390.88;4994753;28;20125;-73
2023/04/07 00:57:35;;;;;;;13.82;6.82;;;10.20;99.90;;;10.52;100.00;101394.38;4994744;28;20436;-73
2023/04/07 01:00:06;;;;;;;15.77;6.43;;;10.10;99.90;;;10.60;100.00;101391.78;4994531;28;20408;-73
2023/04/07 01:02:41;;;;;;;13.30;5.90;;;10.20;99.90;;;10.71;99.42;101397.97;4993359;28;20074;-73
2023/04/07 01:05:16;;;;;;;15.98;6.47;;;10.30;99.90;;;10.75;99.45;101394.47;4994229;28;20047;-73
2023/04/07 01:07:59;;;;;;;19.60;6.60;;;10.40;99.90;;;10.61;98.69;101391.75;4993268;28;20124;-73
2023/04/07 01:10:35;;;;;;;14.45;6.13;;;10.30;99.90;;;10.49;98.96;101394.34;4992867;28;20492;-72
2023/04/07 01:13:23;;;;;;;18.85;6.78;;;10.20;99.90;;;10.35;98.96;101398.72;4993201;28;20050;-73
2023/04/07 01:16:00;;;;;;;15.82;6.43;;;10.00;99.90;;;10.25;99.33;101385.44;4992773;28;20050;-72
2023/04/07 01:18:35;;;;;;;18.13;6.60;;;10.00;99.90;;;10.27;99.35;101397.78;4993045;28;20063;-72
2023/04/07 01:21:07;;;;;;;21.58;6.90;;;9.90;99.90;;;10.07;100.00;101398.50;4992908;28;20058;-72
2023/04/07 01:23:59;;;;;;;18.00;6.85;;;9.70;99.90;;;10.08;100.00;101398.53;4992739;28;20142;-72
2023/04/07 01:26:30;;;;;;;15.52;6.30;;;9.70;99.90;;;10.21;100.00;101394.22;4994221;28;20042;-73
2023/04/07 01:29:35;;;;;;;18.73;6.55;;;9.80;99.90;;;10.15;100.00;101384.50;4994135;28;20073;-73
2023/04/07 01:32:07;;;;;;;20.55;7.10;;;9.80;99.90;;;10.20;100.00;101393.31;4989707;28;20079;-72
2023/04/07 01:34:38;;;;;;;18.52;7.38;;;9.80;99.90;;;10.23;100.00;101395.13;4993792;28;20054;-73
2023/04/07 01:37:07;;;;;;;23.45;8.07;;;9.80;99.90;;;10.18;100.00;101400.38;4992998;28;20057;-73
2023/04/07 01:39:36;;;;;;;18.45;6.82;;;9.80;99.90;;;10.32;100.00;101400.44;4993970;28;20034;-73
2023/04/07 01:42:06;;;;;;;25.30;8.25;;;9.90;99.90;;;10.25;100.00;101420.69;4994182;28;20129;-73
2023/04/07 01:44:36;;;;;;;22.75;7.25;;;9.90;99.90;;;10.23;100.00;101403.03;4992574;28;20065;-73
2023/04/07 01:47:06;;;;;;;18.17;7.57;;;9.80;99.90;;;10.19;100.00;101401.25;4993256;28;20050;-73
2023/04/07 01:49:36;;;;;;;20.20;7.35;;;9.80;99.90;;;10.22;100.00;101403.94;4992533;28;20056;-73
2023/04/07 01:52:06;;;;;;;15.63;7.70;;;9.80;99.90;;;10.16;100.00;101404.78;4993860;28;20050;-73
2023/04/07 01:54:35;;;;;;;18.55;7.53;;;9.80;99.90;;;10.13;100.00;101403.84;4992425;28;20042;-73
2023/04/07 01:57:04;;;;;;;13.85;6.97;;;9.70;99.90;;;10.08;100.00;101397.66;4993680;28;20078;-72
2023/04/07 01:59:32;;;;;;;17.65;7.13;;;9.70;99.90;;;10.19;100.00;101398.63;4992412;28;20093;-73
2023/04/07 02:02:02;;;;;;;19.25;7.43;;;9.80;99.90;;;10.31;100.00;101401.34;4992271;28;20381;-72
2023/04/07 02:04:38;;;;;;;19.35;8.05;;;9.90;99.90;;;10.23;100.00;101398.66;4992264;28;20053;-73
2023/04/07 02:07:15;;;;;;;20.15;7.78;;;9.80;99.90;;;10.19;100.00;101398.63;4993380;28;20053;-72
2023/04/07 02:09:50;;;;;;;17.92;8.07;;;9.80;99.90;;;10.24;100.00;101399.53;4992257;28;20137;-72
2023/04/07 02:12:19;;;;;;;17.50;6.88;;;9.80;99.90;;;10.29;100.00;101397.78;4992279;28;20046;-73
2023/04/07 02:15:01;;;;;;;17.05;7.18;;;9.90;99.90;;;10.14;100.00;101395.97;4992264;28;20100;-73
2023/04/07 02:17:33;;;;;;;20.43;8.40;;;9.80;99.90;;;10.14;100.00;101398.63;4992222;28;20125;-72
2023/04/07 02:20:07;;;;;;;18.40;7.15;;;9.80;99.90;;;10.06;100.00;101394.09;4993494;28;20038;-72
2023/04/07 02:22:38;;;;;;;23.40;7.72;;;9.70;99.90;;;10.06;100.00;101405.56;4993230;28;20038;-73
2023/04/07 02:25:25;;;;;;;20.60;6.88;;;9.70;99.90;;;10.11;100.00;101401.22;4993170;28;20506;-73
2023/04/07 02:27:56;;;;;;;17.55;7.50;;;9.70;99.90;;;10.08;100.00;101402.94;4992056;28;20495;-73
2023/04/07 02:30:25;;;;;;;21.45;8.00;;;9.70;99.90;;;9.97;100.00;101398.47;4992048;28;20054;-72
2023/04/07 02:32:53;;;;;;;16.65;7.05;;;9.60;99.90;;;10.12;100.00;101403.00;4992013;28;20089;-72
2023/04/07 02:35:23;;;;;;;16.58;7.13;;;9.70;99.90;;;10.14;100.00;101405.66;4993030;28;20042;-72
2023/04/07 02:37:52;;;;;;;15.95;7.20;;;9.70;99.90;;;10.10;100.00;101399.47;4992319;28;20153;-72
2023/04/07 02:40:21;;;;;;;26.77;7.88;;;9.70;99.90;;;10.16;100.00;101406.53;4993286;28;20518;-72
2023/04/07 02:42:49;;;;;;;18.08;6.72;;;9.80;99.90;;;10.12;100.00;101404.75;4992935;28;20051;-72
2023/04/07 02:45:17;;;;;;;18.75;7.10;;;9.70;99.90;;;10.03;100.00;101401.13;4993222;28;20496;-72
2023/04/07 02:47:46;;;;;;;21.05;8.10;;;9.70;99.90;;;10.16;100.00;101406.53;4991927;28;20054;-72
2023/04/07 02:50:18;;;;;;;14.50;6.97;;;9.70;99.90;;;10.12;100.00;101404.75;4991923;28;20093;-72
2023/04/07 02:52:48;;;;;;;19.75;7.28;;;9.80;99.90;;;10.28;100.00;101399.53;4991656;28;20137;-72
2023/04/07 02:55:17;;;;;;;18.83;6.57;;;9.90;99.90;;;10.31;100.00;101403.97;4992120;28;20472;-72
2023/04/07 02:57:45;;;;;;;15.20;6.95;;;9.90;99.90;;;10.26;100.00;101408.38;4992788;28;20803;-72
2023/04/07 03:00:31;;;;;;;19.75;6.28;;;10.00;99.90;;;10.23;100.00;101406.59;4995686;28;20054;-73
2023/04/07 03:03:05;;;;;;;15.32;6.60;;;9.90;99.90;;;10.21;100.00;101400.41;4995755;28;20053;-73
2023/04/07 03:05:36;;;;;;;15.38;6.60;;;9.90;99.90;;;10.36;100.00;101404.88;4995568;28;20054;-72
2023/04/07 03:08:07;;;;;;;15.23;6.32;;;10.00;99.90;;;10.33;100.00;101405.75;4995421;28;20496;-73
2023/04/07 03:10:38;;;;;;;20.00;6.85;;;10.00;99.90;;;10.30;100.00;101402.22;4995342;28;20049;-72
2023/04/07 03:13:08;;;;;;;15.07;6.55;;;10.00;99.90;;;10.28;100.00;101406.63;4995371;28;20097;-72
2023/04/07 03:15:38;;;;;;;20.88;7.88;;;10.00;99.90;;;10.44;100.00;101406.69;4995295;28;20086;-73
2023/04/07 03:18:07;;;;;;;20.98;7.72;;;10.10;99.90;;;10.57;100.00;101416.44;4995243;28;20050;-73
2023/04/07 03:20:35;;;;;;;22.67;7.85;;;10.20;99.90;;;10.60;100.00;101415.56;4994905;28;20042;-73
2023/04/07 03:23:11;;;;;;;13.90;7.20;;;10.30;99.90;;;10.60;100.00;101416.47;4996188;28;20404;-72
2023/04/07 03:25:41;;;;;;;19.48;6.95;;;10.30;99.90;;;10.48;100.00;101415.50;4996476;28;20046;-72
2023/04/07 03:28:12;;;;;;;21.92;7.53;;;10.20;99.90;;;10.55;100.00;101419.97;4995072;28;20148;-73
2023/04/07 03:30:40;;;;;;;20.95;7.50;;;10.20;99.90;;;10.43;100.00;101418.13;4994938;28;20060;-72
2023/04/07 03:33:10;;;;;;;15.40;7.00;;;10.20;99.90;;;10.40;100.00;101420.78;4995050;28;20418;-72
2023/04/07 03:35:38;;;;;;;20.33;7.57;;;10.10;99.90;;;9.66;100.00;101280.25;4994963;28;20046;-72
2023/04/07 03:38:06;;;;;;;18.90;7.13;;;10.10;99.90;;;10.74;100.00;101420.03;4994890;28;20492;-73
2023/04/07 03:40:37;;;;;;;18.23;6.97;;;10.40;99.90;;;10.69;100.00;101418.25;4995120;28;20114;-73
2023/04/07 03:43:11;;;;;;;18.70;7.30;;;10.30;99.90;;;10.91;100.00;101425.41;4996371;28;20065;-72
2023/04/07 03:45:40;;;;;;;16.10;6.53;;;10.50;99.90;;;11.12;100.00;101428.09;4994522;28;20050;-73
2023/04/07 03:48:10;;;;;;;15.45;6.80;;;10.80;99.90;;;11.22;100.00;101421.94;4994685;28;20034;-73
2023/04/07 03:50:48;;;;;;;19.60;6.72;;;10.90;99.90;;;11.18;100.00;101427.22;4994665;28;20051;-73
2023/04/07 03:53:19;;;;;;;15.40;6.82;;;10.90;99.90;;;11.25;100.00;101423.69;4994712;28;20047;-73
2023/04/07 03:55:49;;;;;;;19.63;6.13;;;10.90;99.90;;;10.93;100.00;101428.94;4994550;28;20514;-72
2023/04/07 03:58:35;;;;;;;19.55;6.85;;;10.80;99.90;;;10.88;100.00;101433.31;4994750;28;20054;-73
2023/04/07 04:01:05;;;;;;;;;;;10.60;99.90;;;10.64;100.00;101430.59;4994975;28;20051;-72
2023/04/07 04:03:35;;;;;;;18.00;6.88;;;10.50;99.90;;;10.87;100.00;101434.22;4994414;28;19928;-73
2023/04/07 04:06:17;;;;;;;20.10;7.85;;;10.60;99.90;;;10.57;100.00;101434.97;4994496;28;20132;-72
2023/04/07 04:08:46;;;;;;;16.15;7.43;;;10.40;99.90;;;10.57;100.00;101431.41;4994492;28;20467;-72
2023/04/07 04:11:16;;;;;;;16.38;8.10;;;10.30;99.90;;;10.56;100.00;101456.13;4994155;28;20085;-72
2023/04/07 04:13:53;;;;;;;14.15;7.70;;;10.30;99.90;;;10.62;100.00;101435.00;4994454;28;20113;-73
2023/04/07 04:16:22;;;;;;;17.10;6.82;;;10.30;99.90;;;10.63;100.00;101442.91;4995521;28;20058;-72
2023/04/07 04:18:53;;;;;;;9.68;6.13;;;10.30;99.90;;;10.78;100.00;101436.81;4995268;28;20515;-72
2023/04/07 04:21:22;;;;;;;16.08;6.65;;;10.40;99.90;;;10.75;100.00;101436.78;4994044;28;20177;-73
2023/04/07 04:23:51;;;;;;;16.00;6.10;;;10.40;99.90;;;10.82;100.00;101446.50;4993662;28;20500;-73
2023/04/07 04:26:24;;;;;;;13.40;6.68;;;10.50;99.90;;;10.93;100.00;101444.81;4993972;28;20047;-72
2023/04/07 04:28:56;;;;;;;19.15;6.63;;;10.60;99.90;;;10.73;100.00;101443.84;4993992;28;20054;-73
2023/04/07 04:31:25;;;;;;;14.18;5.90;;;10.50;99.90;;;10.81;100.00;101442.13;4993895;28;20046;-73
2023/04/07 04:33:54;;;;;;;10.40;5.85;;;10.50;99.90;;;10.56;100.00;101440.25;4993884;28;20046;-72
2023/04/07 04:36:25;;;;;;;14.43;5.63;;;10.40;99.90;;;10.57;100.00;101452.56;4994427;28;20505;-73
2023/04/07 04:38:58;;;;;;;12.73;5.80;;;10.30;99.90;;;10.68;100.00;101446.47;4994860;28;20407;-72
2023/04/07 04:41:28;;;;;;;13.13;5.40;;;10.40;99.90;;;10.63;100.00;101453.50;4994705;28;20377;-72
2023/04/07 04:43:57;;;;;;;15.80;5.85;;;10.40;99.90;;;10.79;100.00;101459.75;4993750;28;20050;-73
2023/04/07 04:46:27;;;;;;;12.10;5.13;;;10.50;99.90;;;10.81;100.00;101458.00;4993707;28;20050;-72
2023/04/07 04:48:55;;;;;;;12.02;5.75;;;10.50;99.90;;;10.84;100.00;101469.47;4994861;28;20050;-72
2023/04/07 04:51:26;;;;;;;17.58;5.93;;;10.50;99.90;;;10.55;100.00;101471.09;4993484;28;20048;-73
2023/04/07 04:54:02;;;;;;;13.88;5.85;;;10.40;99.90;;;10.58;100.00;101471.13;4993802;28;20054;-72
2023/04/07 04:56:32;;;;;;;13.48;6.00;;;10.40;99.90;;;10.66;100.00;101480.00;4993556;28;20423;-72
2023/04/07 04:59:01;;;;;;;22.40;6.63;;;10.40;99.90;;;10.69;100.00;101474.69;4993383;28;20045;-72
2023/04/07 05:01:42;;;;;;;16.25;6.15;;;10.40;99.90;;;10.69;100.00;101473.81;4993336;28;20046;-73
2023/04/07 05:04:15;;;;;;;18.73;6.03;;;10.40;99.90;;;10.86;100.00;101473.00;4993327;28;20050;-73
2023/04/07 05:06:51;;;;;;;12.98;6.07;;;10.40;99.90;;;10.70;100.00;101475.59;4993261;28;20050;-72
2023/04/07 05:09:23;;;;;;;14.35;5.75;;;10.40;99.90;;;10.83;100.00;101472.13;4993166;28;20081;-72
2023/04/07 05:11:53;;;;;;;16.38;6.10;;;10.50;99.90;;;11.01;100.00;101473.97;4993075;28;20074;-72
2023/04/07 05:14:22;;;;;;;;;;;10.60;99.90;;;10.85;100.00;101467.72;4993514;28;20054;-72
2023/04/07 05:16:55;;;;;;;15.65;5.40;;;10.60;99.90;;;10.73;100.00;101451.78;4993080;28;19929;-72
2023/04/07 05:19:28;;;;;;;19.50;6.00;;;10.50;99.90;;;10.76;100.00;101465.91;4993076;28;20508;-72
2023/04/07 05:22:03;;;;;;;14.45;5.30;;;10.50;99.90;;;10.70;100.00;101459.72;4992549;28;20054;-72
2023/04/07 05:24:39;;;;;;;13.32;5.50;;;10.40;99.90;;;10.65;100.00;101466.72;4992739;28;20057;-72
2023/04/07 05:27:09;;;;;;;23.10;6.20;;;10.30;99.90;;;10.64;100.00;101470.28;4994116;28;20054;-72
2023/04/07 05:29:39;;;;;;;16.08;5.43;;;10.30;99.90;;;10.84;100.00;101474.75;4992938;28;20081;-72
2023/04/07 05:32:12;;;;;;;20.10;5.72;;;10.50;99.90;;;10.74;100.00;101470.31;4992991;28;20054;-72
2023/04/07 05:34:41;;;;;;;20.65;6.07;;;10.50;99.90;;;10.76;100.00;101479.13;4992736;28;20056;-72
2023/04/07 05:37:10;;;;;;;21.13;6.15;;;10.40;99.90;;;10.85;100.00;101475.66;4992964;28;20050;-73
2023/04/07 05:39:39;;;;;;;14.20;5.85;;;10.50;99.90;;;10.89;99.87;101480.09;4993833;28;20046;-73
2023/04/07 05:42:11;;;;;;;14.13;6.28;;;10.60;99.90;;;11.06;99.67;101488.97;4992645;28;20052;-72
2023/04/07 05:44:40;;;;;;;12.10;4.97;;;10.70;99.90;;;11.13;98.54;101488.09;4993945;28;20078;-73
2023/04/07 05:47:10;;;;;;;15.77;5.43;;;10.90;99.90;;;10.86;98.05;101498.56;4992455;28;20042;-73
2023/04/07 05:49:44;;;;;;;;;;;10.70;99.90;;;10.93;98.45;101495.09;4992856;28;20051;-72
2023/04/07 05:52:14;;;;;;;17.20;6.00;;;10.60;99.90;;;10.90;98.57;101490.66;4992014;28;19922;-72
2023/04/07 05:54:47;;;;;;;13.77;5.28;;;10.60;99.90;;;10.94;98.70;101502.16;4992515;28;20050;-72
2023/04/07 05:57:18;;;;;;;20.02;5.57;;;10.60;99.90;;;10.95;98.87;101495.09;4992475;28;20088;-72
2023/04/07 05:59:48;;;;;;;23.42;6.20;;;10.60;99.90;;;10.96;98.13;101505.69;5009125;28;20149;-71
2023/04/07 06:02:17;;;;;;;18.65;6.38;;;10.60;99.90;;;10.80;98.31;101509.16;4992357;28;20057;-70
2023/04/07 06:04:48;;;;;;;15.70;5.82;;;10.60;99.90;;;10.87;99.46;101505.66;4992516;28;20048;-70
2023/04/07 06:07:18;;;;;;;17.10;6.07;;;10.60;99.90;;;10.84;98.52;101511.81;4992539;28;20058;-70
2023/04/07 06:09:46;;;;;;;16.88;5.97;;;10.60;99.90;;;10.77;99.33;101515.31;4993480;28;20432;-71
2023/04/07 06:12:16;;;;;;;20.23;5.95;;;10.50;99.90;;;10.75;99.45;101511.78;4993159;28;20042;-70
2023/04/07 06:14:52;;;;;;;22.10;7.03;;;10.40;99.90;;;10.81;99.37;101519.75;4992199;28;20097;-70
2023/04/07 06:17:22;;;;;;;19.70;6.78;;;10.50;99.90;;;10.88;98.99;101518.00;4991852;28;20356;-70
2023/04/07 06:19:50;;;;;;;18.52;5.78;;;10.60;99.90;;;11.01;99.28;101513.66;4992225;28;20467;-70
2023/04/07 06:22:18;;;;;;;17.40;5.65;;;10.70;99.90;;;10.84;98.98;101516.22;4993604;28;20053;-70
2023/04/07 06:24:47;;;;;;;15.13;5.32;;;10.60;99.90;;;10.99;98.90;101520.72;4992845;28;20488;-70
2023/04/07 06:27:17;;;;;;;15.52;5.47;;;10.70;99.90;;;10.80;99.71;101527.69;4992928;28;20160;-70
2023/04/07 06:29:48;;;;;;;19.17;5.55;;;10.50;99.90;;;11.02;98.81;101537.47;4991751;28;20050;-70
2023/04/07 06:32:16;;;;;;;18.63;5.75;;;10.70;99.90;;;10.75;98.64;101529.41;4992234;28;20042;-70
2023/04/07 06:34:45;;;;;;;21.23;6.22;;;10.60;99.90;;;10.94;98.69;101528.63;4995876;28;20046;-70
2023/04/07 06:37:14;;;;;;;12.82;5.60;;;10.70;99.90;;;10.99;97.83;101532.19;4995920;28;20385;-70
2023/04/07 06:39:44;;;;;;;18.38;5.20;;;10.70;99.90;;;11.01;96.37;101530.44;4997219;28;20057;-70
2023/04/07 06:42:12;;;;;;;16.27;5.30;;;10.80;99.90;;;10.88;96.73;101510.94;4996798;28;20129;-70
2023/04/07 06:44:51;;;;;;;14.52;5.03;;;10.70;99.90;;;11.22;96.27;101537.56;4995901;28;20492;-71
2023/04/07 06:47:20;;;;;;;15.70;5.53;;;10.90;99.90;;;11.28;95.54;101541.13;4997615;28;20133;-71
2023/04/07 06:49:48;;;;;;;18.08;5.53;;;11.00;99.90;;;11.32;94.14;101542.03;4995752;28;20293;-71
2023/04/07 06:52:16;;;;;;;18.52;5.45;;;11.10;99.90;;;10.68;93.86;101514.38;4996676;28;20046;-72
2023/04/07 06:54:45;;;;;;;16.73;5.82;;;10.80;99.90;;;10.89;94.43;101556.84;4997208;28;20050;-72
2023/04/07 06:57:13;;;;;;;20.00;5.80;;;10.70;99.90;;;10.87;94.68;101553.28;4995569;28;20141;-71
2023/04/07 06:59:42;;;;;;;11.90;5.15;;;10.60;99.90;;;11.00;94.18;101554.22;4995396;28;20473;-71
2023/04/07 07:02:11;;;;;;;13.52;5.47;;;10.70;99.90;;;11.08;93.60;101553.41;4995440;28;20068;-71
2023/04/07 07:04:40;;;;;;;26.33;6.43;;;10.80;99.90;;;10.71;94.24;101557.63;4996433;28;20043;-72
2023/04/07 07:07:08;;;;;;;22.88;5.80;;;10.60;99.90;;;10.60;93.91;101551.38;4995449;28;20057;-73
2023/04/07 07:09:37;;;;;;;16.55;5.15;;;10.50;99.90;;;10.90;93.80;101558.59;4996384;28;20042;-71
2023/04/07 07:12:06;;;;;;;16.48;6.05;;;10.60;99.90;;;10.91;92.87;101555.09;4996518;28;20129;-71
2023/04/07 07:14:34;;;;;;;18.63;4.93;;;10.70;99.90;;;10.80;94.07;101564.75;4996324;28;20046;-71
2023/04/07 07:17:03;;;;;;;22.80;5.80;;;10.60;99.90;;;10.85;93.65;101568.28;4996648;28;20497;-70
2023/04/07 07:19:32;;;;;;;17.83;5.95;;;10.60;99.90;;;10.97;93.64;101575.41;4995135;28;20493;-70
2023/04/07 07:22:03;;;;;;;13.63;5.73;;;10.70;99.90;;;10.95;93.47;101578.06;4996776;28;20105;-71
2023/04/07 07:24:32;;;;;;;14.75;5.18;;;10.70;99.90;;;10.87;94.38;101574.47;4996592;28;20057;-76
2023/04/07 07:27:02;;;;;;;19.05;5.82;;;10.60;99.90;;;11.00;93.57;101570.09;4996647;28;20053;-73
2023/04/07 07:29:30;;;;;;;15.00;5.78;;;10.70;99.90;;;10.94;93.50;101578.91;4996954;28;20073;-72
2023/04/07 07:31:59;;;;;;;17.45;6.47;;;10.70;99.90;;;11.07;93.75;101578.09;4994950;28;20082;-73
2023/04/07 07:34:27;;;;;;;15.10;5.75;;;10.80;99.90;;;10.95;93.44;101582.44;4995817;28;20046;-74
2023/04/07 07:36:58;;;;;;;19.75;5.70;;;10.80;99.90;;;10.83;93.44;101584.16;4996056;28;20500;-73
2023/04/07 07:39:27;;;;;;;32.50;7.13;;;10.70;99.90;;;10.90;93.58;101596.53;4995870;28;20109;-74
2023/04/07 07:41:55;;;;;;;16.33;5.10;;;10.70;99.90;;;10.86;94.01;101593.84;4994472;28;20152;-78
2023/04/07 07:44:24;;;;;;;20.52;6.32;;;10.70;99.90;;;11.06;93.85;101597.50;4995253;28;20097;-80
2023/04/07 07:46:52;;;;;;;14.65;5.40;;;10.80;99.90;;;10.74;93.99;101607.91;4994657;28;20480;-74
2023/04/07 07:49:21;;;;;;;17.88;6.63;;;10.60;99.90;;;10.57;94.41;101606.00;4995930;28;20053;-74
2023/04/07 07:51:49;;;;;;;22.92;6.32;;;10.40;99.90;;;10.68;94.16;101602.56;4995670;28;20125;-75
2023/04/07 07:54:19;;;;;;;21.67;5.72;;;10.50;99.90;;;10.66;94.48;101609.63;4995857;28;20463;-73
2023/04/07 07:56:47;;;;;;;17.80;5.73;;;10.50;99.90;;;10.90;93.73;101606.22;4996016;28;20073;-73
2023/04/07 07:59:16;;;;;;;16.33;5.50;;;10.70;99.90;;;10.81;92.87;101609.72;4995679;28;20061;-76
2023/04/07 08:01:45;;;;;;;12.52;4.60;;;10.60;99.90;;;10.87;92.40;101616.81;4995668;28;20531;-74
2023/04/07 08:04:13;;;;;;;17.58;5.13;;;10.70;99.90;;;10.98;92.18;101616.84;4994517;28;20530;-73
2023/04/07 08:06:42;;;;;;;21.77;6.22;;;10.70;99.90;;;11.08;91.39;101611.66;4995674;28;20042;-75
2023/04/07 08:09:10;;;;;;;19.23;5.78;;;10.90;99.90;;;10.86;90.88;101618.56;4995859;28;20043;-79
2023/04/07 08:11:40;;;;;;;15.90;6.18;;;10.70;99.90;;;10.89;91.16;101623.00;4995364;28;20060;-77
2023/04/07 08:14:08;;;;;;;16.52;4.90;;;10.70;99.90;;;10.76;92.01;101619.38;4995325;28;20045;-76
2023/04/07 08:16:37;;;;;;;17.10;4.97;;;10.60;99.90;;;10.57;92.00;101587.47;4995361;28;20053;-73
2023/04/07 08:19:06;;;;;;;17.60;5.90;;;10.50;99.90;;;10.51;92.13;101619.22;4995172;28;20053;-72
2023/04/07 08:21:34;;;;;;;21.25;5.28;;;10.30;99.90;;;10.54;92.10;101621.88;4994208;28;20054;-72
2023/04/07 08:24:03;;;;;;;21.02;5.55;;;10.30;99.90;;;10.61;91.85;101624.56;4995191;28;20066;-72
2023/04/07 08:26:31;;;;;;;15.57;5.30;;;10.30;99.90;;;10.26;91.82;101604.88;4995040;28;20452;-73
2023/04/07 08:29:01;;;;;;;18.30;5.25;;;10.30;99.90;;;10.25;92.81;101607.50;4994949;28;20050;-75
2023/04/07 08:31:30;;;;;;;22.73;6.07;;;10.10;99.90;;;10.61;92.12;101632.50;4995269;28;20138;-72
2023/04/07 08:33:58;;;;;;;22.25;6.13;;;10.40;99.90;;;10.42;92.70;101635.88;4994961;28;20816;-79
2023/04/07 08:36:27;;;;;;;17.42;5.30;;;10.20;99.90;;;10.44;92.95;101641.16;4993909;28;20046;-77
2023/04/07 08:38:56;;;;;;;21.80;5.30;;;10.20;99.90;;;10.61;92.42;101637.78;4993949;28;20050;-79
2023/04/07 08:41:34;;;;;;;17.90;5.70;;;10.40;99.90;;;10.85;92.31;101645.03;4995030;28;20125;-74
2023/04/07 08:44:04;;;;;;;20.63;5.65;;;10.50;99.90;;;10.96;91.52;101640.69;4993697;28;20052;-74
2023/04/07 08:46:34;;;;;;;22.95;6.15;;;10.70;99.90;;;10.64;91.49;101647.53;4994911;28;20043;-76
2023/04/07 08:49:04;;;;;;;17.85;5.53;;;10.50;99.90;;;10.90;91.07;101640.63;4993501;28;20129;-75
2023/04/07 08:51:33;;;;;;;16.50;5.28;;;10.60;99.90;;;10.80;90.57;101631.75;4994744;28;20042;-75
2023/04/07 08:54:09;;;;;;;13.38;5.82;;;10.70;99.90;;;10.88;90.19;101653.88;4994924;28;20042;-82
2023/04/07 08:56:40;;;;;;;19.40;5.70;;;10.70;99.90;;;10.92;90.18;101633.59;4992806;28;20068;-76
2023/04/07 08:59:14;;;;;;;17.02;5.30;;;10.80;99.90;;;10.86;90.27;101658.25;4993341;28;20511;-76
2023/04/07 09:01:42;;;;;;;18.13;5.22;;;10.70;99.90;;;10.82;90.26;101655.56;4994393;28;20464;-82
2023/04/07 09:04:11;;;;;;;15.55;5.95;;;10.60;99.90;;;10.85;89.88;101650.31;4994339;28;20074;-71
2023/04/07 09:06:39;;;;;;;18.58;5.57;;;10.70;99.90;;;10.85;90.49;101668.84;4994223;28;20039;-79
2023/04/07 09:09:08;;;;;;;15.02;4.95;;;10.60;99.90;;;10.71;90.23;101663.44;4993188;28;20046;-67
2023/04/07 09:11:39;;;;;;;14.90;4.90;;;10.50;99.90;;;10.72;90.57;101667.00;4993246;28;20057;-76
2023/04/07 09:14:08;;;;;;;17.95;5.40;;;10.40;99.90;;;10.75;90.27;101669.66;4994077;28;20073;-75
2023/04/07 09:16:39;;;;;;;21.25;5.18;;;10.50;99.90;;;10.93;90.52;101667.16;4993069;28;20076;-75
2023/04/07 09:19:08;;;;;;;16.52;5.25;;;10.60;99.90;;;11.00;90.79;101670.69;4994058;28;20057;-76
2023/04/07 09:21:52;;;;;;;20.42;5.65;;;10.70;99.90;;;10.86;90.02;101670.59;4994062;28;20137;-75
2023/04/07 09:24:23;;;;;;;16.98;4.50;;;10.70;99.90;;;10.74;89.25;101662.59;4993178;28;20100;-76
2023/04/07 09:26:51;;;;;;;;;;;10.50;99.90;;;10.56;90.05;101658.03;4993486;28;20100;-77
2023/04/07 09:29:21;;;;;;;17.60;5.90;;;10.40;99.90;;;10.51;90.24;101650.94;4994056;28;19922;-77
2023/04/07 09:31:53;;;;;;;12.52;5.03;;;10.40;99.90;;;10.89;89.80;101668.00;4993841;28;20043;-78
2023/04/07 09:34:27;;;;;;;14.35;5.20;;;10.60;99.90;;;10.79;90.27;101676.75;4992745;28;20097;-76
2023/04/07 09:36:57;;;;;;;15.75;5.75;;;10.50;99.90;;;10.93;89.87;101674.19;4994078;28;20089;-75
2023/04/07 09:39:26;;;;;;;16.10;5.40;;;10.60;99.90;;;11.17;89.14;101680.53;4993854;28;20109;-78
2023/04/07 09:41:55;;;;;;;20.90;5.68;;;10.90;99.90;;;11.20;88.52;101677.91;4993918;28;20042;-77
2023/04/07 09:44:24;;;;;;;15.25;5.68;;;10.90;99.90;;;11.11;88.33;101675.19;4993930;28;20464;-79
2023/04/07 09:46:56;;;;;;;16.52;4.88;;;10.90;99.90;;;10.85;88.18;101672.38;4994059;28;20108;-70
2023/04/07 09:49:26;;;;;;;17.90;5.88;;;10.70;99.90;;;11.14;87.48;101674.34;4994253;28;20057;-79
2023/04/07 09:51:56;;;;;;;10.33;4.80;;;10.90;99.90;;;11.15;88.37;101679.63;4994621;28;20495;-86
2023/04/07 09:54:35;;;;;;;;;;;10.90;99.90;;;11.03;87.78;101676.03;4995051;28;20131;-81
2023/04/07 09:57:05;;;;;;;18.77;5.57;;;10.80;99.90;;;10.97;88.31;101682.19;4994176;28;19929;-85
2023/04/07 09:59:36;;;;;;;24.67;6.13;;;10.70;99.90;;;10.93;88.30;101680.38;4995166;28;20053;-85
2023/04/07 10:02:08;;;;;;;19.48;6.20;;;10.70;99.90;;;11.04;88.91;101686.63;4993630;28;20046;-83
2023/04/07 10:04:37;;;;;;;18.67;6.68;;;10.80;99.90;;;10.93;89.30;101683.03;4995056;28;20077;-71
2023/04/07 10:07:06;;;;;;;23.67;6.18;;;10.70;99.90;;;10.96;89.70;101672.44;4994515;28;20397;-84
2023/04/07 10:09:35;;;;;;;19.98;5.93;;;10.70;99.90;;;10.93;89.55;101688.31;4994423;28;20043;-83
2023/04/07 10:12:05;;;;;;;20.38;5.88;;;10.70;99.90;;;10.84;90.02;101691.78;4994186;28;20082;-82
2023/04/07 10:14:34;;;;;;;15.25;5.22;;;10.60;99.90;;;11.10;90.01;101688.44;4994053;28;20510;-82
2023/04/07 10:17:04;;;;;;;18.77;5.65;;;10.80;99.90;;;11.09;89.93;101691.97;4994619;28;20050;-83
2023/04/07 10:19:36;;;;;;;22.38;6.82;;;10.80;99.90;;;11.00;91.56;101692.78;4994420;28;20081;-76